sensor_id;sensor_type;location;lat;lon;timestamp;P1;durP1;ratioP1;P2;durP2;ratioP2
60873;SDS011;46715;40.642;-7.920;2024-02-04T00:01:34;46.07;;;30.97;;
60873;SDS011;46715;40.642;-7.920;2024-02-04T00:03:34;46.37;;;32.70;;
60873;SDS011;46715;40.642;-7.920;2024-02-04T00:05:35;47.57;;;30.40;;
60873;SDS011;46715;40.642;-7.920;2024-02-04T00:07:36;46.77;;;30.90;;
60873;SDS011;46715;40.642;-7.920;2024-02-04T00:09:37;48.57;;;30.17;;
60873;SDS011;46715;40.642;-7.920;2024-02-04T00:11:37;47.97;;;29.93;;
60873;SDS011;46715;40.642;-7.920;2024-02-04T00:13:38;53.07;;;31.93;;
60873;SDS011;46715;40.642;-7.920;2024-02-04T00:15:39;51.27;;;31.23;;
60873;SDS011;46715;40.642;-7.920;2024-02-04T00:17:40;49.27;;;31.10;;
60873;SDS011;46715;40.642;-7.920;2024-02-04T00:19:41;50.87;;;32.43;;
60873;SDS011;46715;40.642;-7.920;2024-02-04T00:21:42;53.20;;;34.15;;
60873;SDS011;46715;40.642;-7.920;2024-02-04T00:23:43;59.27;;;35.33;;
60873;SDS011;46715;40.642;-7.920;2024-02-04T00:25:44;55.60;;;34.93;;
60873;SDS011;46715;40.642;-7.920;2024-02-04T00:27:44;50.57;;;32.03;;
60873;SDS011;46715;40.642;-7.920;2024-02-04T00:29:45;50.00;;;33.33;;
60873;SDS011;46715;40.642;-7.920;2024-02-04T00:31:46;51.80;;;35.23;;
60873;SDS011;46715;40.642;-7.920;2024-02-04T00:33:47;63.57;;;39.33;;
60873;SDS011;46715;40.642;-7.920;2024-02-04T00:35:47;65.87;;;39.73;;
60873;SDS011;46715;40.642;-7.920;2024-02-04T00:37:48;63.50;;;40.40;;
60873;SDS011;46715;40.642;-7.920;2024-02-04T00:39:49;64.13;;;39.40;;
60873;SDS011;46715;40.642;-7.920;2024-02-04T00:41:50;58.90;;;38.47;;
60873;SDS011;46715;40.642;-7.920;2024-02-04T00:43:50;63.80;;;40.00;;
60873;SDS011;46715;40.642;-7.920;2024-02-04T00:45:52;58.65;;;37.83;;
60873;SDS011;46715;40.642;-7.920;2024-02-04T00:47:56;56.22;;;38.15;;
60873;SDS011;46715;40.642;-7.920;2024-02-04T00:49:57;62.27;;;37.30;;
60873;SDS011;46715;40.642;-7.920;2024-02-04T00:51:58;55.90;;;36.70;;
60873;SDS011;46715;40.642;-7.920;2024-02-04T00:53:59;61.40;;;36.63;;
60873;SDS011;46715;40.642;-7.920;2024-02-04T00:56:03;57.47;;;35.27;;
60873;SDS011;46715;40.642;-7.920;2024-02-04T00:58:04;57.63;;;35.60;;
60873;SDS011;46715;40.642;-7.920;2024-02-04T01:00:05;52.63;;;36.63;;
60873;SDS011;46715;40.642;-7.920;2024-02-04T01:02:08;54.63;;;36.55;;
60873;SDS011;46715;40.642;-7.920;2024-02-04T01:04:08;58.57;;;36.33;;
60873;SDS011;46715;40.642;-7.920;2024-02-04T01:06:09;61.23;;;35.93;;
60873;SDS011;46715;40.642;-7.920;2024-02-04T01:08:10;54.90;;;35.23;;
60873;SDS011;46715;40.642;-7.920;2024-02-04T01:10:11;48.70;;;34.20;;
60873;SDS011;46715;40.642;-7.920;2024-02-04T01:12:12;50.70;;;33.20;;
60873;SDS011;46715;40.642;-7.920;2024-02-04T01:14:12;56.70;;;33.37;;
60873;SDS011;46715;40.642;-7.920;2024-02-04T01:16:14;48.03;;;29.77;;
60873;SDS011;46715;40.642;-7.920;2024-02-04T01:18:14;46.07;;;28.07;;
60873;SDS011;46715;40.642;-7.920;2024-02-04T01:20:15;46.63;;;28.80;;
60873;SDS011;46715;40.642;-7.920;2024-02-04T01:22:16;36.87;;;25.37;;
60873;SDS011;46715;40.642;-7.920;2024-02-04T01:24:17;50.03;;;31.47;;
60873;SDS011;46715;40.642;-7.920;2024-02-04T01:26:18;51.20;;;32.17;;
60873;SDS011;46715;40.642;-7.920;2024-02-04T01:28:18;51.57;;;29.33;;
60873;SDS011;46715;40.642;-7.920;2024-02-04T01:30:19;41.03;;;26.03;;
60873;SDS011;46715;40.642;-7.920;2024-02-04T01:32:20;27.07;;;18.00;;
60873;SDS011;46715;40.642;-7.920;2024-02-04T01:34:27;34.90;;;18.73;;
60873;SDS011;46715;40.642;-7.920;2024-02-04T01:36:29;37.03;;;24.67;;
60873;SDS011;46715;40.642;-7.920;2024-02-04T01:38:30;35.10;;;20.33;;
60873;SDS011;46715;40.642;-7.920;2024-02-04T01:40:31;35.23;;;20.47;;
60873;SDS011;46715;40.642;-7.920;2024-02-04T01:42:32;38.73;;;21.93;;
60873;SDS011;46715;40.642;-7.920;2024-02-04T01:44:32;32.57;;;20.17;;
60873;SDS011;46715;40.642;-7.920;2024-02-04T01:46:33;32.87;;;20.00;;
60873;SDS011;46715;40.642;-7.920;2024-02-04T01:48:34;30.60;;;18.57;;
60873;SDS011;46715;40.642;-7.920;2024-02-04T01:50:35;27.37;;;18.70;;
60873;SDS011;46715;40.642;-7.920;2024-02-04T01:52:36;29.23;;;17.43;;
60873;SDS011;46715;40.642;-7.920;2024-02-04T01:54:40;27.63;;;16.30;;
60873;SDS011;46715;40.642;-7.920;2024-02-04T01:56:43;29.35;;;16.83;;
60873;SDS011;46715;40.642;-7.920;2024-02-04T01:58:47;25.63;;;15.48;;
60873;SDS011;46715;40.642;-7.920;2024-02-04T02:02:50;26.48;;;16.67;;
60873;SDS011;46715;40.642;-7.920;2024-02-04T02:04:52;25.15;;;16.00;;
60873;SDS011;46715;40.642;-7.920;2024-02-04T02:06:54;24.17;;;15.35;;
60873;SDS011;46715;40.642;-7.920;2024-02-04T02:08:55;27.95;;;15.32;;
60873;SDS011;46715;40.642;-7.920;2024-02-04T02:13:30;27.27;;;15.73;;
60873;SDS011;46715;40.642;-7.920;2024-02-04T02:15:36;21.50;;;13.27;;
60873;SDS011;46715;40.642;-7.920;2024-02-04T02:17:45;26.38;;;15.18;;
60873;SDS011;46715;40.642;-7.920;2024-02-04T02:19:53;29.52;;;14.55;;
60873;SDS011;46715;40.642;-7.920;2024-02-04T02:22:48;24.23;;;14.25;;
60873;SDS011;46715;40.642;-7.920;2024-02-04T02:24:37;25.02;;;15.13;;
60873;SDS011;46715;40.642;-7.920;2024-02-04T02:26:40;21.77;;;14.73;;
60873;SDS011;46715;40.642;-7.920;2024-02-04T02:28:41;23.88;;;14.52;;
60873;SDS011;46715;40.642;-7.920;2024-02-04T02:30:42;25.00;;;14.97;;
60873;SDS011;46715;40.642;-7.920;2024-02-04T02:32:43;26.20;;;15.10;;
60873;SDS011;46715;40.642;-7.920;2024-02-04T02:34:45;25.55;;;15.05;;
60873;SDS011;46715;40.642;-7.920;2024-02-04T02:36:54;27.60;;;14.68;;
60873;SDS011;46715;40.642;-7.920;2024-02-04T02:39:08;28.42;;;14.57;;
60873;SDS011;46715;40.642;-7.920;2024-02-04T02:41:13;25.90;;;16.23;;
60873;SDS011;46715;40.642;-7.920;2024-02-04T02:43:16;25.35;;;15.20;;
60873;SDS011;46715;40.642;-7.920;2024-02-04T02:45:19;23.23;;;15.52;;
60873;SDS011;46715;40.642;-7.920;2024-02-04T02:47:23;25.23;;;15.40;;
60873;SDS011;46715;40.642;-7.920;2024-02-04T02:49:25;23.65;;;14.45;;
60873;SDS011;46715;40.642;-7.920;2024-02-04T02:51:26;21.20;;;13.57;;
60873;SDS011;46715;40.642;-7.920;2024-02-04T02:53:26;22.17;;;14.07;;
60873;SDS011;46715;40.642;-7.920;2024-02-04T02:55:28;23.15;;;14.25;;
60873;SDS011;46715;40.642;-7.920;2024-02-04T02:57:29;21.20;;;13.17;;
60873;SDS011;46715;40.642;-7.920;2024-02-04T02:59:30;23.90;;;13.50;;
60873;SDS011;46715;40.642;-7.920;2024-02-04T03:01:31;28.70;;;14.23;;
60873;SDS011;46715;40.642;-7.920;2024-02-04T03:03:32;21.90;;;13.15;;
60873;SDS011;46715;40.642;-7.920;2024-02-04T03:05:33;20.87;;;13.03;;
60873;SDS011;46715;40.642;-7.920;2024-02-04T03:07:34;24.10;;;13.70;;
60873;SDS011;46715;40.642;-7.920;2024-02-04T03:09:34;23.67;;;15.00;;
60873;SDS011;46715;40.642;-7.920;2024-02-04T03:11:35;23.17;;;14.47;;
60873;SDS011;46715;40.642;-7.920;2024-02-04T03:13:38;20.23;;;14.02;;
60873;SDS011;46715;40.642;-7.920;2024-02-04T03:15:39;21.35;;;13.07;;
60873;SDS011;46715;40.642;-7.920;2024-02-04T03:17:42;22.98;;;13.52;;
60873;SDS011;46715;40.642;-7.920;2024-02-04T03:19:44;24.35;;;12.90;;
60873;SDS011;46715;40.642;-7.920;2024-02-04T03:21:46;18.77;;;11.77;;
60873;SDS011;46715;40.642;-7.920;2024-02-04T03:23:49;24.67;;;13.77;;
60873;SDS011;46715;40.642;-7.920;2024-02-04T03:25:49;21.33;;;13.43;;
60873;SDS011;46715;40.642;-7.920;2024-02-04T03:27:50;25.53;;;14.17;;
60873;SDS011;46715;40.642;-7.920;2024-02-04T03:29:53;22.60;;;15.75;;
60873;SDS011;46715;40.642;-7.920;2024-02-04T03:31:55;22.15;;;14.13;;
60873;SDS011;46715;40.642;-7.920;2024-02-04T03:33:56;23.60;;;13.65;;
60873;SDS011;46715;40.642;-7.920;2024-02-04T03:35:57;23.20;;;14.43;;
60873;SDS011;46715;40.642;-7.920;2024-02-04T03:37:58;21.17;;;12.97;;
60873;SDS011;46715;40.642;-7.920;2024-02-04T03:39:59;21.70;;;13.70;;
60873;SDS011;46715;40.642;-7.920;2024-02-04T03:41:59;23.73;;;12.80;;
60873;SDS011;46715;40.642;-7.920;2024-02-04T03:44:01;25.45;;;13.40;;
60873;SDS011;46715;40.642;-7.920;2024-02-04T03:46:02;26.13;;;13.70;;
60873;SDS011;46715;40.642;-7.920;2024-02-04T03:48:03;23.17;;;14.38;;
60873;SDS011;46715;40.642;-7.920;2024-02-04T03:50:05;24.92;;;12.65;;
60873;SDS011;46715;40.642;-7.920;2024-02-04T03:52:06;20.27;;;13.50;;
60873;SDS011;46715;40.642;-7.920;2024-02-04T03:54:07;21.27;;;12.20;;
60873;SDS011;46715;40.642;-7.920;2024-02-04T03:56:07;26.23;;;13.57;;
60873;SDS011;46715;40.642;-7.920;2024-02-04T03:58:08;24.03;;;11.33;;
60873;SDS011;46715;40.642;-7.920;2024-02-04T04:00:09;17.63;;;11.43;;
60873;SDS011;46715;40.642;-7.920;2024-02-04T04:02:13;19.23;;;10.05;;
60873;SDS011;46715;40.642;-7.920;2024-02-04T04:04:14;17.67;;;10.67;;
60873;SDS011;46715;40.642;-7.920;2024-02-04T04:06:15;24.13;;;9.85;;
60873;SDS011;46715;40.642;-7.920;2024-02-04T04:08:16;18.60;;;11.30;;
60873;SDS011;46715;40.642;-7.920;2024-02-04T04:10:19;19.60;;;10.13;;
60873;SDS011;46715;40.642;-7.920;2024-02-04T04:12:19;19.77;;;9.70;;
60873;SDS011;46715;40.642;-7.920;2024-02-04T04:14:20;19.70;;;9.83;;
60873;SDS011;46715;40.642;-7.920;2024-02-04T04:16:21;13.57;;;8.67;;
60873;SDS011;46715;40.642;-7.920;2024-02-04T04:18:25;16.17;;;8.82;;
60873;SDS011;46715;40.642;-7.920;2024-02-04T04:20:26;14.43;;;9.10;;
60873;SDS011;46715;40.642;-7.920;2024-02-04T04:22:30;13.95;;;8.40;;
60873;SDS011;46715;40.642;-7.920;2024-02-04T04:24:31;15.50;;;8.80;;
60873;SDS011;46715;40.642;-7.920;2024-02-04T04:26:32;24.30;;;9.60;;
60873;SDS011;46715;40.642;-7.920;2024-02-04T04:28:34;18.70;;;9.52;;
60873;SDS011;46715;40.642;-7.920;2024-02-04T04:30:35;15.23;;;8.18;;
60873;SDS011;46715;40.642;-7.920;2024-02-04T04:32:36;14.60;;;9.07;;
60873;SDS011;46715;40.642;-7.920;2024-02-04T04:34:36;13.33;;;8.20;;
60873;SDS011;46715;40.642;-7.920;2024-02-04T04:36:37;17.07;;;8.47;;
60873;SDS011;46715;40.642;-7.920;2024-02-04T04:38:38;20.23;;;9.20;;
60873;SDS011;46715;40.642;-7.920;2024-02-04T04:40:39;14.43;;;8.20;;
60873;SDS011;46715;40.642;-7.920;2024-02-04T04:44:41;15.60;;;8.25;;
60873;SDS011;46715;40.642;-7.920;2024-02-04T04:46:42;18.40;;;9.80;;
60873;SDS011;46715;40.642;-7.920;2024-02-04T04:48:43;16.00;;;8.57;;
60873;SDS011;46715;40.642;-7.920;2024-02-04T04:50:43;13.63;;;7.93;;
60873;SDS011;46715;40.642;-7.920;2024-02-04T04:52:44;15.27;;;8.47;;
60873;SDS011;46715;40.642;-7.920;2024-02-04T04:54:45;14.85;;;7.55;;
60873;SDS011;46715;40.642;-7.920;2024-02-04T04:56:46;16.83;;;9.07;;
60873;SDS011;46715;40.642;-7.920;2024-02-04T04:58:47;14.67;;;8.03;;
60873;SDS011;46715;40.642;-7.920;2024-02-04T05:00:48;17.20;;;8.63;;
60873;SDS011;46715;40.642;-7.920;2024-02-04T05:02:49;20.93;;;8.90;;
60873;SDS011;46715;40.642;-7.920;2024-02-04T05:04:50;12.37;;;8.13;;
60873;SDS011;46715;40.642;-7.920;2024-02-04T05:06:51;17.60;;;8.13;;
60873;SDS011;46715;40.642;-7.920;2024-02-04T05:08:52;17.65;;;9.00;;
60873;SDS011;46715;40.642;-7.920;2024-02-04T05:10:52;23.03;;;9.60;;
60873;SDS011;46715;40.642;-7.920;2024-02-04T05:12:53;17.97;;;8.50;;
60873;SDS011;46715;40.642;-7.920;2024-02-04T05:14:54;17.53;;;8.83;;
60873;SDS011;46715;40.642;-7.920;2024-02-04T05:16:55;15.77;;;8.73;;
60873;SDS011;46715;40.642;-7.920;2024-02-04T05:18:56;17.43;;;9.37;;
60873;SDS011;46715;40.642;-7.920;2024-02-04T05:20:56;17.67;;;8.40;;
60873;SDS011;46715;40.642;-7.920;2024-02-04T05:23:00;17.67;;;8.40;;
60873;SDS011;46715;40.642;-7.920;2024-02-04T05:25:01;23.20;;;9.20;;
60873;SDS011;46715;40.642;-7.920;2024-02-04T05:27:02;15.87;;;7.57;;
60873;SDS011;46715;40.642;-7.920;2024-02-04T05:29:03;15.67;;;8.37;;
60873;SDS011;46715;40.642;-7.920;2024-02-04T05:31:03;12.00;;;7.80;;
60873;SDS011;46715;40.642;-7.920;2024-02-04T05:33:04;16.13;;;8.03;;
60873;SDS011;46715;40.642;-7.920;2024-02-04T05:37:08;13.50;;;7.90;;
60873;SDS011;46715;40.642;-7.920;2024-02-04T05:39:12;14.77;;;7.80;;
60873;SDS011;46715;40.642;-7.920;2024-02-04T05:41:14;17.80;;;7.90;;
60873;SDS011;46715;40.642;-7.920;2024-02-04T05:43:15;16.10;;;8.40;;
60873;SDS011;46715;40.642;-7.920;2024-02-04T05:45:16;15.88;;;7.97;;
60873;SDS011;46715;40.642;-7.920;2024-02-04T05:47:17;17.90;;;9.13;;
60873;SDS011;46715;40.642;-7.920;2024-02-04T05:49:18;17.10;;;8.90;;
60873;SDS011;46715;40.642;-7.920;2024-02-04T05:51:19;15.60;;;8.13;;
60873;SDS011;46715;40.642;-7.920;2024-02-04T05:53:19;19.20;;;9.07;;
60873;SDS011;46715;40.642;-7.920;2024-02-04T05:55:20;16.77;;;8.23;;
60873;SDS011;46715;40.642;-7.920;2024-02-04T05:57:21;14.80;;;7.93;;
60873;SDS011;46715;40.642;-7.920;2024-02-04T05:59:22;20.80;;;8.00;;
60873;SDS011;46715;40.642;-7.920;2024-02-04T06:01:22;16.37;;;8.73;;
60873;SDS011;46715;40.642;-7.920;2024-02-04T06:03:23;15.60;;;9.17;;
60873;SDS011;46715;40.642;-7.920;2024-02-04T06:05:24;18.37;;;8.67;;
60873;SDS011;46715;40.642;-7.920;2024-02-04T06:07:25;22.73;;;8.83;;
60873;SDS011;46715;40.642;-7.920;2024-02-04T06:09:25;21.77;;;8.80;;
60873;SDS011;46715;40.642;-7.920;2024-02-04T06:11:26;17.63;;;8.37;;
60873;SDS011;46715;40.642;-7.920;2024-02-04T06:13:27;18.17;;;8.77;;
60873;SDS011;46715;40.642;-7.920;2024-02-04T06:15:28;13.70;;;8.03;;
60873;SDS011;46715;40.642;-7.920;2024-02-04T06:17:28;17.13;;;8.57;;
60873;SDS011;46715;40.642;-7.920;2024-02-04T06:19:29;17.77;;;9.57;;
60873;SDS011;46715;40.642;-7.920;2024-02-04T06:21:30;15.30;;;9.07;;
60873;SDS011;46715;40.642;-7.920;2024-02-04T06:23:31;17.67;;;9.00;;
60873;SDS011;46715;40.642;-7.920;2024-02-04T06:25:32;20.23;;;9.87;;
60873;SDS011;46715;40.642;-7.920;2024-02-04T06:27:32;19.00;;;9.63;;
60873;SDS011;46715;40.642;-7.920;2024-02-04T06:29:33;22.30;;;9.67;;
60873;SDS011;46715;40.642;-7.920;2024-02-04T06:31:34;17.13;;;9.20;;
60873;SDS011;46715;40.642;-7.920;2024-02-04T06:33:35;17.67;;;9.13;;
60873;SDS011;46715;40.642;-7.920;2024-02-04T06:35:36;22.85;;;10.02;;
60873;SDS011;46715;40.642;-7.920;2024-02-04T06:37:37;19.00;;;10.07;;
60873;SDS011;46715;40.642;-7.920;2024-02-04T06:39:44;16.67;;;9.48;;
60873;SDS011;46715;40.642;-7.920;2024-02-04T06:41:45;22.87;;;9.83;;
60873;SDS011;46715;40.642;-7.920;2024-02-04T06:43:45;18.23;;;9.73;;
60873;SDS011;46715;40.642;-7.920;2024-02-04T06:45:46;17.10;;;10.13;;
60873;SDS011;46715;40.642;-7.920;2024-02-04T06:47:47;20.87;;;9.97;;
60873;SDS011;46715;40.642;-7.920;2024-02-04T06:49:48;18.60;;;9.57;;
60873;SDS011;46715;40.642;-7.920;2024-02-04T06:51:49;19.77;;;9.90;;
60873;SDS011;46715;40.642;-7.920;2024-02-04T06:55:51;16.00;;;9.38;;
60873;SDS011;46715;40.642;-7.920;2024-02-04T06:57:52;13.93;;;8.53;;
60873;SDS011;46715;40.642;-7.920;2024-02-04T06:59:53;19.33;;;9.47;;
60873;SDS011;46715;40.642;-7.920;2024-02-04T07:01:53;16.30;;;8.80;;
60873;SDS011;46715;40.642;-7.920;2024-02-04T07:03:54;16.83;;;9.20;;
60873;SDS011;46715;40.642;-7.920;2024-02-04T07:05:55;15.37;;;9.30;;
60873;SDS011;46715;40.642;-7.920;2024-02-04T07:07:56;15.80;;;9.00;;
60873;SDS011;46715;40.642;-7.920;2024-02-04T07:09:57;17.57;;;9.10;;
60873;SDS011;46715;40.642;-7.920;2024-02-04T07:12:00;15.13;;;9.18;;
60873;SDS011;46715;40.642;-7.920;2024-02-04T07:14:01;17.47;;;10.80;;
60873;SDS011;46715;40.642;-7.920;2024-02-04T07:16:02;20.93;;;10.57;;
60873;SDS011;46715;40.642;-7.920;2024-02-04T07:18:02;19.20;;;9.73;;
60873;SDS011;46715;40.642;-7.920;2024-02-04T07:20:04;17.80;;;9.88;;
60873;SDS011;46715;40.642;-7.920;2024-02-04T07:24:06;15.35;;;8.30;;
60873;SDS011;46715;40.642;-7.920;2024-02-04T07:26:07;18.10;;;8.73;;
60873;SDS011;46715;40.642;-7.920;2024-02-04T07:28:08;16.02;;;9.05;;
60873;SDS011;46715;40.642;-7.920;2024-02-04T07:30:09;21.60;;;10.43;;
60873;SDS011;46715;40.642;-7.920;2024-02-04T07:32:10;18.20;;;10.10;;
60873;SDS011;46715;40.642;-7.920;2024-02-04T07:34:11;25.00;;;9.57;;
60873;SDS011;46715;40.642;-7.920;2024-02-04T07:36:12;17.47;;;9.73;;
60873;SDS011;46715;40.642;-7.920;2024-02-04T07:38:13;17.97;;;9.90;;
60873;SDS011;46715;40.642;-7.920;2024-02-04T07:40:17;17.48;;;9.52;;
60873;SDS011;46715;40.642;-7.920;2024-02-04T07:42:18;19.43;;;9.57;;
60873;SDS011;46715;40.642;-7.920;2024-02-04T07:44:19;22.40;;;9.40;;
60873;SDS011;46715;40.642;-7.920;2024-02-04T07:46:20;19.27;;;8.53;;
60873;SDS011;46715;40.642;-7.920;2024-02-04T07:48:21;20.27;;;9.82;;
60873;SDS011;46715;40.642;-7.920;2024-02-04T07:50:22;17.53;;;10.43;;
60873;SDS011;46715;40.642;-7.920;2024-02-04T07:52:23;19.63;;;9.93;;
60873;SDS011;46715;40.642;-7.920;2024-02-04T07:54:23;20.20;;;9.43;;
60873;SDS011;46715;40.642;-7.920;2024-02-04T07:56:31;18.98;;;9.75;;
60873;SDS011;46715;40.642;-7.920;2024-02-04T07:58:32;19.80;;;10.03;;
60873;SDS011;46715;40.642;-7.920;2024-02-04T08:00:33;19.85;;;9.77;;
60873;SDS011;46715;40.642;-7.920;2024-02-04T08:02:34;20.37;;;9.13;;
60873;SDS011;46715;40.642;-7.920;2024-02-04T08:04:34;17.63;;;10.03;;
60873;SDS011;46715;40.642;-7.920;2024-02-04T08:06:35;15.53;;;9.00;;
60873;SDS011;46715;40.642;-7.920;2024-02-04T08:08:37;18.08;;;8.90;;
60873;SDS011;46715;40.642;-7.920;2024-02-04T08:10:38;23.60;;;10.33;;
60873;SDS011;46715;40.642;-7.920;2024-02-04T08:12:39;17.83;;;9.60;;
60873;SDS011;46715;40.642;-7.920;2024-02-04T08:14:40;19.73;;;8.73;;
60873;SDS011;46715;40.642;-7.920;2024-02-04T08:16:41;21.93;;;9.20;;
60873;SDS011;46715;40.642;-7.920;2024-02-04T08:18:43;17.00;;;9.07;;
60873;SDS011;46715;40.642;-7.920;2024-02-04T08:20:44;17.03;;;7.70;;
60873;SDS011;46715;40.642;-7.920;2024-02-04T08:22:44;16.60;;;7.40;;
60873;SDS011;46715;40.642;-7.920;2024-02-04T08:24:45;15.90;;;7.40;;
60873;SDS011;46715;40.642;-7.920;2024-02-04T08:26:47;14.50;;;7.22;;
60873;SDS011;46715;40.642;-7.920;2024-02-04T08:28:48;17.92;;;7.40;;
60873;SDS011;46715;40.642;-7.920;2024-02-04T08:30:49;14.30;;;6.70;;
60873;SDS011;46715;40.642;-7.920;2024-02-04T08:32:50;11.60;;;7.20;;
60873;SDS011;46715;40.642;-7.920;2024-02-04T08:34:50;15.63;;;8.20;;
60873;SDS011;46715;40.642;-7.920;2024-02-04T08:36:51;19.42;;;8.05;;
60873;SDS011;46715;40.642;-7.920;2024-02-04T08:38:52;11.63;;;7.25;;
60873;SDS011;46715;40.642;-7.920;2024-02-04T08:40:53;13.75;;;6.80;;
60873;SDS011;46715;40.642;-7.920;2024-02-04T08:42:54;11.77;;;6.20;;
60873;SDS011;46715;40.642;-7.920;2024-02-04T08:44:55;17.00;;;7.03;;
60873;SDS011;46715;40.642;-7.920;2024-02-04T08:46:56;17.47;;;6.90;;
60873;SDS011;46715;40.642;-7.920;2024-02-04T08:48:57;12.18;;;6.53;;
60873;SDS011;46715;40.642;-7.920;2024-02-04T08:50:57;10.90;;;6.43;;
60873;SDS011;46715;40.642;-7.920;2024-02-04T08:52:58;13.73;;;6.77;;
60873;SDS011;46715;40.642;-7.920;2024-02-04T08:54:59;14.93;;;6.97;;
60873;SDS011;46715;40.642;-7.920;2024-02-04T08:57:00;18.13;;;7.70;;
60873;SDS011;46715;40.642;-7.920;2024-02-04T08:59:00;12.70;;;7.40;;
60873;SDS011;46715;40.642;-7.920;2024-02-04T09:01:03;13.80;;;7.00;;
60873;SDS011;46715;40.642;-7.920;2024-02-04T09:03:05;16.77;;;6.95;;
60873;SDS011;46715;40.642;-7.920;2024-02-04T09:05:06;12.27;;;6.25;;
60873;SDS011;46715;40.642;-7.920;2024-02-04T09:07:07;13.93;;;5.72;;
60873;SDS011;46715;40.642;-7.920;2024-02-04T09:09:08;12.80;;;6.15;;
60873;SDS011;46715;40.642;-7.920;2024-02-04T09:11:09;11.25;;;5.95;;
60873;SDS011;46715;40.642;-7.920;2024-02-04T09:13:14;13.18;;;6.72;;
60873;SDS011;46715;40.642;-7.920;2024-02-04T09:15:15;9.23;;;5.47;;
60873;SDS011;46715;40.642;-7.920;2024-02-04T09:17:16;10.18;;;5.95;;
60873;SDS011;46715;40.642;-7.920;2024-02-04T09:19:16;15.00;;;6.28;;
60873;SDS011;46715;40.642;-7.920;2024-02-04T09:21:17;14.35;;;6.35;;
60873;SDS011;46715;40.642;-7.920;2024-02-04T09:23:18;13.35;;;5.60;;
60873;SDS011;46715;40.642;-7.920;2024-02-04T09:25:19;12.55;;;6.13;;
60873;SDS011;46715;40.642;-7.920;2024-02-04T09:27:20;11.50;;;5.97;;
60873;SDS011;46715;40.642;-7.920;2024-02-04T09:29:21;11.48;;;6.05;;
60873;SDS011;46715;40.642;-7.920;2024-02-04T09:31:21;12.95;;;6.85;;
60873;SDS011;46715;40.642;-7.920;2024-02-04T09:33:22;12.95;;;6.35;;
60873;SDS011;46715;40.642;-7.920;2024-02-04T09:35:23;12.95;;;6.40;;
60873;SDS011;46715;40.642;-7.920;2024-02-04T09:37:24;13.27;;;5.78;;
60873;SDS011;46715;40.642;-7.920;2024-02-04T09:39:25;9.88;;;5.60;;
60873;SDS011;46715;40.642;-7.920;2024-02-04T09:41:25;14.35;;;5.72;;
60873;SDS011;46715;40.642;-7.920;2024-02-04T09:43:27;8.00;;;5.80;;
60873;SDS011;46715;40.642;-7.920;2024-02-04T09:45:28;11.68;;;6.28;;
60873;SDS011;46715;40.642;-7.920;2024-02-04T09:47:30;15.10;;;6.65;;
60873;SDS011;46715;40.642;-7.920;2024-02-04T09:49:33;12.48;;;6.82;;
60873;SDS011;46715;40.642;-7.920;2024-02-04T09:51:34;12.33;;;7.10;;
60873;SDS011;46715;40.642;-7.920;2024-02-04T09:53:35;11.02;;;6.93;;
60873;SDS011;46715;40.642;-7.920;2024-02-04T09:55:37;12.88;;;6.95;;
60873;SDS011;46715;40.642;-7.920;2024-02-04T09:57:40;18.80;;;7.10;;
60873;SDS011;46715;40.642;-7.920;2024-02-04T09:59:41;13.10;;;6.90;;
60873;SDS011;46715;40.642;-7.920;2024-02-04T10:01:43;14.48;;;6.03;;
60873;SDS011;46715;40.642;-7.920;2024-02-04T10:03:47;10.75;;;6.93;;
60873;SDS011;46715;40.642;-7.920;2024-02-04T10:05:48;11.73;;;5.82;;
60873;SDS011;46715;40.642;-7.920;2024-02-04T10:07:49;15.43;;;6.67;;
60873;SDS011;46715;40.642;-7.920;2024-02-04T10:09:50;14.40;;;6.50;;
60873;SDS011;46715;40.642;-7.920;2024-02-04T10:11:51;11.60;;;5.87;;
60873;SDS011;46715;40.642;-7.920;2024-02-04T10:13:52;19.27;;;6.17;;
60873;SDS011;46715;40.642;-7.920;2024-02-04T10:15:52;13.53;;;6.70;;
60873;SDS011;46715;40.642;-7.920;2024-02-04T10:17:54;15.40;;;7.20;;
60873;SDS011;46715;40.642;-7.920;2024-02-04T10:19:54;10.07;;;5.43;;
60873;SDS011;46715;40.642;-7.920;2024-02-04T10:22:02;14.13;;;6.27;;
60873;SDS011;46715;40.642;-7.920;2024-02-04T10:24:05;11.82;;;6.22;;
60873;SDS011;46715;40.642;-7.920;2024-02-04T10:26:06;12.55;;;5.63;;
60873;SDS011;46715;40.642;-7.920;2024-02-04T10:28:07;17.03;;;4.97;;
60873;SDS011;46715;40.642;-7.920;2024-02-04T10:30:08;11.37;;;5.47;;
60873;SDS011;46715;40.642;-7.920;2024-02-04T10:32:09;12.30;;;5.60;;
60873;SDS011;46715;40.642;-7.920;2024-02-04T10:34:10;12.93;;;5.57;;
60873;SDS011;46715;40.642;-7.920;2024-02-04T10:36:11;13.57;;;5.37;;
60873;SDS011;46715;40.642;-7.920;2024-02-04T10:38:12;9.55;;;5.10;;
60873;SDS011;46715;40.642;-7.920;2024-02-04T10:40:13;13.37;;;5.47;;
60873;SDS011;46715;40.642;-7.920;2024-02-04T10:42:14;11.87;;;5.80;;
60873;SDS011;46715;40.642;-7.920;2024-02-04T10:44:18;19.13;;;6.32;;
60873;SDS011;46715;40.642;-7.920;2024-02-04T10:46:22;11.98;;;5.35;;
60873;SDS011;46715;40.642;-7.920;2024-02-04T10:48:24;12.73;;;4.85;;
60873;SDS011;46715;40.642;-7.920;2024-02-04T10:50:27;13.45;;;5.57;;
60873;SDS011;46715;40.642;-7.920;2024-02-04T10:52:34;11.23;;;5.75;;
60873;SDS011;46715;40.642;-7.920;2024-02-04T10:54:40;13.85;;;5.82;;
60873;SDS011;46715;40.642;-7.920;2024-02-04T10:56:42;15.55;;;5.88;;
60873;SDS011;46715;40.642;-7.920;2024-02-04T10:58:47;12.20;;;5.72;;
60873;SDS011;46715;40.642;-7.920;2024-02-04T11:00:49;12.90;;;6.00;;
60873;SDS011;46715;40.642;-7.920;2024-02-04T11:02:51;12.90;;;6.03;;
60873;SDS011;46715;40.642;-7.920;2024-02-04T11:04:54;14.77;;;6.03;;
60873;SDS011;46715;40.642;-7.920;2024-02-04T11:06:55;12.38;;;5.13;;
60873;SDS011;46715;40.642;-7.920;2024-02-04T11:08:57;14.38;;;5.85;;
60873;SDS011;46715;40.642;-7.920;2024-02-04T11:11:00;9.77;;;5.82;;
60873;SDS011;46715;40.642;-7.920;2024-02-04T11:13:01;10.20;;;4.83;;
60873;SDS011;46715;40.642;-7.920;2024-02-04T11:15:04;14.18;;;5.72;;
60873;SDS011;46715;40.642;-7.920;2024-02-04T11:23:59;15.77;;;6.43;;
60873;SDS011;46715;40.642;-7.920;2024-02-04T11:26:33;12.20;;;6.38;;
60873;SDS011;46715;40.642;-7.920;2024-02-04T11:28:35;14.40;;;7.50;;
60873;SDS011;46715;40.642;-7.920;2024-02-04T11:32:37;11.10;;;6.28;;
60873;SDS011;46715;40.642;-7.920;2024-02-04T11:34:39;14.98;;;6.05;;
60873;SDS011;46715;40.642;-7.920;2024-02-04T11:36:41;13.27;;;5.57;;
60873;SDS011;46715;40.642;-7.920;2024-02-04T11:38:41;13.40;;;6.13;;
60873;SDS011;46715;40.642;-7.920;2024-02-04T11:40:42;10.80;;;5.53;;
60873;SDS011;46715;40.642;-7.920;2024-02-04T11:42:43;14.90;;;6.07;;
60873;SDS011;46715;40.642;-7.920;2024-02-04T11:44:44;15.13;;;5.60;;
60873;SDS011;46715;40.642;-7.920;2024-02-04T11:46:46;15.73;;;5.78;;
60873;SDS011;46715;40.642;-7.920;2024-02-04T11:48:53;16.20;;;5.68;;
60873;SDS011;46715;40.642;-7.920;2024-02-04T11:50:54;11.95;;;5.40;;
60873;SDS011;46715;40.642;-7.920;2024-02-04T11:53:07;15.93;;;5.53;;
60873;SDS011;46715;40.642;-7.920;2024-02-04T11:55:14;12.70;;;4.88;;
60873;SDS011;46715;40.642;-7.920;2024-02-04T11:57:15;10.63;;;4.85;;
60873;SDS011;46715;40.642;-7.920;2024-02-04T11:59:16;16.25;;;4.93;;
60873;SDS011;46715;40.642;-7.920;2024-02-04T12:01:18;11.68;;;4.65;;
60873;SDS011;46715;40.642;-7.920;2024-02-04T12:03:29;10.23;;;4.65;;
60873;SDS011;46715;40.642;-7.920;2024-02-04T12:05:34;11.30;;;4.75;;
60873;SDS011;46715;40.642;-7.920;2024-02-04T12:07:35;10.65;;;5.10;;
60873;SDS011;46715;40.642;-7.920;2024-02-04T12:09:38;12.90;;;5.43;;